createdAt,value
2018-11-05T00:07:58.235Z,38.70
2018-11-05T00:17:59.498Z,40.47
2018-11-05T00:28:00.758Z,41.53
2018-11-05T00:38:02.051Z,42.50
2018-11-05T00:48:04.066Z,43.73
2018-11-05T00:58:06.110Z,44.00
2018-11-05T01:08:07.405Z,45.30
2018-11-05T01:18:08.678Z,47.10
2018-11-05T01:28:09.947Z,44.83
2018-11-05T01:38:11.235Z,43.93
2018-11-05T01:48:13.574Z,44.93
2018-11-05T01:58:14.867Z,41.77
2018-11-05T02:08:16.148Z,40.80
2018-11-05T02:18:17.398Z,43.67
2018-11-05T02:28:18.665Z,42.00
2018-11-05T02:38:19.936Z,43.47
2018-11-05T02:48:21.221Z,40.53
2018-11-05T02:58:22.490Z,39.50
2018-11-05T03:08:23.770Z,39.07
2018-11-05T03:18:25.050Z,35.23
2018-11-05T03:28:27.111Z,34.67
2018-11-05T03:38:28.406Z,34.93
2018-11-05T03:48:29.659Z,34.57
2018-11-05T03:58:31.706Z,34.33
2018-11-05T04:08:32.967Z,34.33
2018-11-05T04:18:34.974Z,31.40
2018-11-05T04:28:37.001Z,31.40
2018-11-05T04:38:38.279Z,30.70
2018-11-05T04:48:40.307Z,29.83
2018-11-05T04:58:42.350Z,28.47
2018-11-05T05:08:44.423Z,29.27
2018-11-05T05:18:46.487Z,30.07
2018-11-05T05:28:47.785Z,26.80
2018-11-05T05:38:49.067Z,27.97
2018-11-05T05:48:50.326Z,28.40
2018-11-05T05:58:52.337Z,27.40
2018-11-05T06:08:54.359Z,27.30
2018-11-05T06:18:55.623Z,24.60
2018-11-05T06:28:56.892Z,27.67
2018-11-05T06:38:58.165Z,26.20
2018-11-05T06:48:59.494Z,24.20
2018-11-05T06:59:00.719Z,23.63
2018-11-05T07:09:02.764Z,23.03
2018-11-05T07:19:04.350Z,23.23
2018-11-05T07:29:05.340Z,21.87
2018-11-05T07:39:07.367Z,22.40
2018-11-05T07:49:08.646Z,23.13
2018-11-05T07:59:10.675Z,21.17
2018-11-05T08:09:11.937Z,21.80
2018-11-05T08:19:13.230Z,19.53
2018-11-05T08:29:15.320Z,20.33
2018-11-05T08:39:16.601Z,17.93
2018-11-05T08:49:17.889Z,17.20
2018-11-05T08:59:19.169Z,18.67
2018-11-05T09:09:20.447Z,17.03
2018-11-05T09:19:22.504Z,16.70
2018-11-05T09:29:23.765Z,15.60
2018-11-05T09:39:25.806Z,15.10
2018-11-05T09:49:27.116Z,15.67
2018-11-05T09:59:28.418Z,18.00
2018-11-05T10:09:29.725Z,15.80
2018-11-05T10:19:30.951Z,16.30
2018-11-05T10:29:32.986Z,15.37
2018-11-05T10:39:34.264Z,15.73
2018-11-05T10:49:35.558Z,15.23
2018-11-05T10:59:37.602Z,15.33
2018-11-05T11:09:38.942Z,17.90
2018-11-05T11:19:40.092Z,15.17
2018-11-05T11:29:41.368Z,15.00
2018-11-05T11:39:42.603Z,16.23
2018-11-05T11:49:43.866Z,15.83
2018-11-05T11:59:45.210Z,17.57
2018-11-05T12:09:46.461Z,15.50
2018-11-05T12:19:47.759Z,17.23
2018-11-05T12:29:49.082Z,19.30
2018-11-05T12:39:50.325Z,21.67
2018-11-05T12:49:52.399Z,20.63
2018-11-05T12:59:53.659Z,21.70
2018-11-05T13:09:54.912Z,22.77
2018-11-05T13:19:56.931Z,24.13
2018-11-05T13:29:58.948Z,23.87
2018-11-05T13:40:01.022Z,23.00
2018-11-05T13:50:02.545Z,24.47
2018-11-05T14:00:03.591Z,22.33
2018-11-05T14:10:04.885Z,24.57
2018-11-05T14:20:06.176Z,25.47
2018-11-05T14:30:07.618Z,23.50
2018-11-05T14:40:09.932Z,25.03
2018-11-05T14:50:11.249Z,28.00
2018-11-05T15:00:12.511Z,29.30
2018-11-05T15:10:14.562Z,27.83
2018-11-05T15:20:16.464Z,29.43
2018-11-05T15:30:20.491Z,30.87
2018-11-05T15:40:24.859Z,38.72
2018-11-05T15:50:28.457Z,31.20
2018-11-05T16:31:28.767Z,31.97
2018-11-05T16:41:30.074Z,33.47
2018-11-05T16:51:32.102Z,33.80
2018-11-05T17:01:33.572Z,36.87
2018-11-05T17:11:34.674Z,36.30
2018-11-05T17:21:39.985Z,38.43
2018-11-05T17:31:43.107Z,37.37
2018-11-05T17:41:47.527Z,38.80
2018-11-05T17:51:48.968Z,37.97
2018-11-05T18:01:50.536Z,36.13
2018-11-05T18:11:52.614Z,47.27
2018-11-05T18:21:53.893Z,50.13
2018-11-05T18:31:57.223Z,41.30
2018-11-05T18:41:58.624Z,42.80
2018-11-05T18:51:59.904Z,41.50
2018-11-05T19:02:01.263Z,42.40
2018-11-05T19:12:02.721Z,43.17
2018-11-05T19:22:07.484Z,41.87
2018-11-05T19:32:09.156Z,38.03
2018-11-05T19:42:10.677Z,40.77
2018-11-05T19:52:14.124Z,42.80
2018-11-05T20:02:15.677Z,41.40
2018-11-05T20:12:17.612Z,42.27
2018-11-05T20:22:18.955Z,41.97
2018-11-05T20:32:20.693Z,39.50
2018-11-05T20:42:21.965Z,39.37
2018-11-05T20:52:27.739Z,40.73
2018-11-05T21:02:29.452Z,40.47
2018-11-05T21:12:30.933Z,40.60
2018-11-05T21:22:32.280Z,38.50
2018-11-05T21:32:33.516Z,38.50
2018-11-05T21:42:34.918Z,38.33
2018-11-05T21:52:37.360Z,41.23
2018-11-05T22:02:39.396Z,38.23
2018-11-05T22:12:40.733Z,36.23
2018-11-05T22:22:43.231Z,38.40
2018-11-05T22:32:44.438Z,37.10
2018-11-05T22:42:45.721Z,37.80
2018-11-05T22:52:47.068Z,36.73
2018-11-05T23:02:48.430Z,38.73
2018-11-05T23:12:50.690Z,38.20
2018-11-05T23:22:51.997Z,40.53
2018-11-05T23:32:54.070Z,37.57
2018-11-05T23:42:55.344Z,38.77
2018-11-05T23:52:56.619Z,38.13
